createdAt,value
2019-05-09T00:01:44.022Z,16.50
2019-05-09T00:04:14.011Z,17.27
2019-05-09T00:06:43.591Z,15.80
2019-05-09T00:09:13.962Z,15.63
2019-05-09T00:11:44.043Z,16.90
2019-05-09T00:14:14.065Z,15.27
2019-05-09T00:16:44.022Z,15.33
2019-05-09T00:19:13.676Z,15.07
2019-05-09T00:21:44.938Z,15.40
2019-05-09T00:24:14.850Z,13.33
2019-05-09T00:26:44.460Z,13.83
2019-05-09T00:29:19.869Z,14.20
2019-05-09T00:32:14.238Z,12.53
2019-05-09T00:35:13.997Z,12.63
2019-05-09T00:37:57.611Z,14.00
2019-05-09T00:40:27.154Z,12.87
2019-05-09T00:42:56.959Z,13.80
2019-05-09T00:45:51.380Z,13.63
2019-05-09T00:48:24.448Z,11.33
2019-05-09T00:50:54.516Z,11.70
2019-05-09T00:53:24.026Z,11.87
2019-05-09T00:55:53.495Z,11.70
2019-05-09T00:58:24.132Z,9.40
2019-05-09T01:00:53.734Z,10.93
2019-05-09T01:03:23.484Z,11.23
2019-05-09T01:05:54.260Z,11.17
2019-05-09T01:08:24.229Z,10.33
2019-05-09T01:11:08.230Z,10.40
2019-05-09T01:13:24.874Z,10.27
2019-05-09T01:15:54.787Z,9.97
2019-05-09T01:18:24.290Z,10.30
2019-05-09T01:20:53.793Z,9.93
2019-05-09T01:23:23.457Z,10.37
2019-05-09T01:25:53.082Z,10.60
2019-05-09T01:28:23.189Z,10.03
2019-05-09T01:30:53.283Z,9.50
2019-05-09T01:33:48.223Z,9.80
2019-05-09T01:36:17.743Z,9.50
2019-05-09T01:38:47.571Z,9.80
2019-05-09T01:41:27.840Z,10.10
2019-05-09T01:43:48.842Z,10.50
2019-05-09T01:46:18.782Z,10.23
2019-05-09T01:48:48.470Z,10.93
2019-05-09T01:51:17.947Z,10.13
2019-05-09T01:53:53.203Z,9.87
2019-05-09T01:56:23.511Z,10.23
2019-05-09T01:58:54.035Z,9.57
2019-05-09T02:01:24.222Z,10.37
2019-05-09T02:03:53.936Z,9.67
2019-05-09T02:06:24.460Z,9.97
2019-05-09T02:08:54.669Z,9.23
2019-05-09T02:11:39.105Z,10.50
2019-05-09T02:13:55.529Z,9.77
2019-05-09T02:16:47.051Z,10.60
2019-05-09T02:19:30.214Z,10.50
2019-05-09T02:22:00.051Z,9.60
2019-05-09T02:24:29.959Z,9.83
2019-05-09T02:26:59.422Z,9.30
2019-05-09T02:29:29.623Z,8.93
2019-05-09T02:31:59.128Z,9.10
2019-05-09T02:34:28.660Z,9.27
2019-05-09T02:36:58.777Z,9.73
2019-05-09T02:39:29.446Z,8.60
2019-05-09T02:42:08.489Z,9.17
2019-05-09T02:44:30.333Z,9.03
2019-05-09T02:47:09.253Z,8.80
2019-05-09T02:49:39.342Z,8.07
2019-05-09T02:52:09.136Z,8.87
2019-05-09T02:54:39.343Z,8.67
2019-05-09T02:57:09.525Z,9.07
2019-05-09T02:59:59.285Z,8.80
2019-05-09T03:02:59.512Z,8.23
2019-05-09T03:05:29.677Z,11.00
2019-05-09T03:07:59.506Z,8.30
2019-05-09T03:10:29.552Z,8.70
2019-05-09T03:12:59.818Z,8.47
2019-05-09T03:15:29.638Z,8.60
2019-05-09T03:17:59.871Z,8.80
2019-05-09T03:20:43.959Z,9.67
2019-05-09T03:23:13.440Z,10.30
2019-05-09T03:25:42.908Z,10.07
2019-05-09T03:28:34.170Z,10.57
2019-05-09T03:31:04.587Z,10.33
2019-05-09T03:33:35.763Z,11.17
2019-05-09T03:36:07.696Z,13.27
2019-05-09T03:38:37.712Z,13.57
2019-05-09T03:41:08.492Z,14.40
2019-05-09T03:43:38.234Z,14.60
2019-05-09T03:46:18.638Z,14.40
2019-05-09T03:48:51.111Z,14.47
2019-05-09T03:51:20.582Z,15.27
2019-05-09T03:53:50.050Z,15.13
2019-05-09T03:56:23.422Z,15.13
2019-05-09T03:58:52.922Z,16.17
2019-05-09T04:01:22.451Z,16.03
2019-05-09T04:03:51.910Z,17.10
2019-05-09T04:06:21.422Z,18.07
2019-05-09T04:08:53.964Z,17.20
2019-05-09T04:11:22.400Z,18.30
2019-05-09T04:13:58.154Z,19.47
2019-05-09T04:16:28.152Z,18.83
2019-05-09T04:18:58.279Z,19.50
2019-05-09T04:21:28.157Z,20.00
2019-05-09T04:23:58.429Z,19.17
2019-05-09T04:27:07.667Z,18.50
2019-05-09T04:29:37.416Z,18.07
2019-05-09T04:32:07.999Z,19.83
2019-05-09T04:34:38.250Z,18.73
2019-05-09T04:37:11.615Z,20.03
2019-05-09T04:39:40.671Z,19.20
2019-05-09T04:42:10.718Z,18.93
2019-05-09T04:45:03.215Z,18.50
2019-05-09T04:47:33.934Z,17.47
2019-05-09T04:50:01.345Z,17.83
2019-05-09T04:52:30.943Z,18.37
2019-05-09T04:55:00.414Z,15.90
2019-05-09T04:57:30.020Z,16.50
2019-05-09T04:59:59.612Z,15.30
2019-05-09T05:02:44.910Z,16.10
2019-05-09T05:05:14.483Z,16.30
2019-05-09T05:07:44.478Z,14.90
2019-05-09T05:10:14.427Z,14.40
2019-05-09T05:12:43.907Z,13.87
2019-05-09T05:15:13.504Z,12.47
2019-05-09T05:17:43.095Z,13.03
2019-05-09T05:20:18.596Z,11.77
2019-05-09T05:22:53.727Z,11.43
2019-05-09T05:25:23.335Z,11.40
2019-05-09T05:27:52.834Z,11.07
2019-05-09T05:30:22.647Z,10.93
2019-05-09T05:32:59.435Z,11.57
2019-05-09T05:35:48.083Z,10.00
2019-05-09T05:38:17.856Z,8.63
2019-05-09T05:40:49.690Z,10.00
2019-05-09T05:43:18.806Z,9.10
2019-05-09T05:46:01.526Z,8.73
2019-05-09T05:48:32.259Z,7.80
2019-05-09T05:51:01.797Z,8.53
2019-05-09T05:53:31.290Z,7.63
2019-05-09T05:56:00.778Z,7.07
2019-05-09T05:58:30.396Z,7.97
2019-05-09T06:00:59.883Z,6.47
2019-05-09T06:03:29.371Z,8.20
2019-05-09T06:05:58.860Z,6.80
2019-05-09T06:08:28.336Z,6.27
2019-05-09T06:10:57.829Z,6.47
2019-05-09T06:13:27.632Z,5.73
2019-05-09T06:15:58.651Z,5.97
2019-05-09T06:18:28.300Z,6.17
2019-05-09T06:20:58.589Z,5.50
2019-05-09T06:23:28.316Z,7.03
2019-05-09T06:25:58.732Z,5.83
2019-05-09T06:28:28.555Z,4.73
2019-05-09T06:30:58.574Z,4.77
2019-05-09T06:33:28.717Z,4.20
2019-05-09T06:35:59.087Z,4.03
2019-05-09T06:38:28.636Z,4.07
2019-05-09T06:40:58.588Z,4.37
2019-05-09T06:43:30.666Z,4.23
2019-05-09T06:46:21.975Z,4.00
2019-05-09T06:48:51.461Z,4.13
2019-05-09T06:51:21.487Z,4.00
2019-05-09T06:53:51.066Z,3.60
2019-05-09T06:56:20.558Z,2.87
2019-05-09T06:58:50.064Z,2.90
2019-05-09T07:01:29.414Z,3.37
2019-05-09T07:04:04.861Z,2.83
2019-05-09T07:06:41.110Z,3.33
2019-05-09T07:09:29.911Z,3.03
2019-05-09T07:11:59.591Z,3.40
2019-05-09T07:14:33.344Z,3.80
2019-05-09T07:17:02.675Z,4.10
2019-05-09T07:19:32.318Z,3.57
2019-05-09T07:22:23.907Z,3.80
2019-05-09T07:25:18.946Z,3.83
2019-05-09T07:27:48.577Z,3.10
2019-05-09T07:30:40.353Z,3.47
2019-05-09T07:33:25.043Z,3.13
2019-05-09T07:35:54.521Z,2.93
2019-05-09T07:38:31.160Z,3.33
2019-05-09T07:41:01.407Z,3.50
2019-05-09T07:43:30.955Z,3.50
2019-05-09T07:46:17.708Z,3.40
2019-05-09T07:48:48.376Z,3.10
2019-05-09T07:51:18.271Z,3.87
2019-05-09T07:53:48.268Z,3.40
2019-05-09T07:56:18.663Z,3.97
2019-05-09T07:58:48.330Z,3.47
2019-05-09T08:01:19.041Z,2.93
2019-05-09T08:03:49.130Z,3.43
2019-05-09T08:06:18.867Z,3.80
2019-05-09T08:08:48.407Z,3.30
2019-05-09T08:11:18.260Z,3.90
2019-05-09T08:13:48.622Z,3.57
2019-05-09T08:16:18.714Z,3.80
2019-05-09T08:18:48.511Z,3.60
2019-05-09T08:21:18.607Z,3.70
2019-05-09T08:23:48.676Z,4.07
2019-05-09T08:26:18.980Z,4.27
2019-05-09T08:28:48.643Z,4.37
2019-05-09T08:31:18.548Z,4.50
2019-05-09T08:33:48.680Z,4.50
2019-05-09T08:36:20.220Z,4.43
2019-05-09T08:38:49.394Z,4.40
2019-05-09T08:41:18.919Z,5.40
2019-05-09T08:43:48.549Z,5.73
2019-05-09T08:46:18.385Z,5.73
2019-05-09T08:48:48.598Z,4.90
2019-05-09T08:51:50.877Z,5.13
2019-05-09T08:54:10.868Z,5.90
2019-05-09T08:56:40.362Z,5.00
2019-05-09T08:59:10.244Z,5.93
2019-05-09T09:02:04.190Z,6.63
2019-05-09T09:04:10.948Z,6.33
2019-05-09T09:06:40.463Z,6.50
2019-05-09T09:09:10.085Z,6.30
2019-05-09T09:11:39.551Z,6.57
2019-05-09T09:14:09.051Z,7.60
2019-05-09T09:16:41.440Z,7.83
2019-05-09T09:19:09.671Z,8.30
2019-05-09T09:21:39.200Z,7.93
2019-05-09T09:24:08.882Z,8.77
2019-05-09T09:26:38.451Z,9.10
2019-05-09T09:29:08.563Z,10.80
2019-05-09T09:31:38.470Z,11.10
2019-05-09T09:34:08.123Z,11.30
2019-05-09T09:36:39.036Z,11.83
2019-05-09T09:39:08.873Z,12.20
2019-05-09T09:41:38.902Z,12.47
2019-05-09T09:44:08.988Z,12.30
2019-05-09T09:46:38.624Z,11.03
2019-05-09T09:49:08.274Z,11.43
2019-05-09T09:51:38.398Z,10.93
2019-05-09T09:54:08.742Z,10.57
2019-05-09T09:56:38.897Z,10.53
2019-05-09T09:59:33.526Z,10.97
2019-05-09T10:02:03.272Z,9.30
2019-05-09T10:04:32.747Z,8.67
2019-05-09T10:07:02.225Z,8.60
2019-05-09T10:09:31.835Z,9.27
2019-05-09T10:12:01.324Z,9.70
2019-05-09T10:14:34.108Z,9.20
2019-05-09T10:17:10.581Z,10.47
2019-05-09T10:19:48.276Z,10.73
2019-05-09T10:22:24.827Z,10.13
2019-05-09T10:24:52.271Z,9.70
2019-05-09T10:27:21.814Z,10.37
2019-05-09T10:29:51.310Z,10.90
2019-05-09T10:32:21.663Z,10.70
2019-05-09T10:34:51.510Z,10.17
2019-05-09T10:37:21.147Z,9.10
2019-05-09T10:39:50.691Z,7.57
2019-05-09T10:42:48.563Z,7.70
2019-05-09T10:45:40.910Z,8.17
2019-05-09T10:48:10.732Z,6.23
2019-05-09T10:50:44.771Z,6.90
2019-05-09T10:53:11.366Z,5.80
2019-05-09T10:55:41.013Z,5.93
2019-05-09T10:58:10.618Z,4.00
2019-05-09T11:00:40.114Z,3.97
2019-05-09T11:03:09.574Z,4.23
2019-05-09T11:05:39.098Z,4.23
2019-05-09T11:08:08.588Z,4.10
2019-05-09T11:10:39.433Z,4.23
2019-05-09T11:13:09.219Z,4.40
2019-05-09T11:15:38.735Z,4.10
2019-05-09T11:18:08.358Z,3.70
2019-05-09T11:20:37.882Z,2.90
2019-05-09T11:23:08.376Z,2.57
2019-05-09T11:25:38.186Z,2.70
2019-05-09T11:28:12.556Z,3.20
2019-05-09T11:30:38.906Z,3.00
2019-05-09T11:33:08.763Z,2.23
2019-05-09T11:35:38.282Z,2.30
2019-05-09T11:38:08.431Z,2.60
2019-05-09T11:40:38.174Z,2.43
2019-05-09T11:43:07.655Z,3.17
2019-05-09T11:45:38.834Z,2.43
2019-05-09T11:48:08.398Z,2.37
2019-05-09T11:50:38.854Z,1.97
2019-05-09T11:53:09.026Z,2.00
2019-05-09T11:55:43.214Z,2.13
2019-05-09T11:58:09.654Z,1.40
2019-05-09T12:00:39.494Z,2.07
2019-05-09T12:03:09.275Z,2.37
2019-05-09T12:05:38.950Z,1.70
2019-05-09T12:08:08.575Z,1.50
2019-05-09T12:10:38.574Z,1.70
2019-05-09T12:13:08.669Z,1.40
2019-05-09T12:15:39.099Z,1.93
2019-05-09T12:18:11.473Z,1.30
2019-05-09T12:20:40.078Z,1.47
2019-05-09T12:23:09.538Z,2.57
2019-05-09T12:25:39.015Z,1.63
2019-05-09T12:28:08.526Z,1.67
2019-05-09T12:30:38.295Z,1.60
2019-05-09T12:33:08.598Z,1.80
2019-05-09T12:35:38.730Z,1.70
2019-05-09T12:38:08.447Z,1.70
2019-05-09T12:40:38.840Z,2.20
2019-05-09T12:43:09.148Z,1.60
2019-05-09T12:45:38.919Z,1.57
2019-05-09T12:48:14.788Z,2.43
2019-05-09T12:50:39.875Z,1.80
2019-05-09T12:53:09.866Z,2.20
2019-05-09T12:55:39.339Z,1.50
2019-05-09T12:58:27.802Z,1.63
2019-05-09T13:00:58.812Z,1.20
2019-05-09T13:03:29.190Z,1.40
2019-05-09T13:05:58.955Z,1.40
2019-05-09T13:08:28.464Z,1.17
2019-05-09T13:10:58.318Z,1.80
2019-05-09T13:13:31.925Z,1.93
2019-05-09T13:16:22.277Z,2.53
2019-05-09T13:19:06.059Z,1.10
2019-05-09T13:21:38.330Z,1.23
2019-05-09T13:24:08.339Z,1.63
2019-05-09T13:26:38.713Z,1.50
2019-05-09T13:29:08.797Z,1.07
2019-05-09T13:31:39.618Z,1.37
2019-05-09T13:34:09.467Z,1.20
2019-05-09T13:36:38.943Z,2.00
2019-05-09T13:39:10.566Z,1.40
2019-05-09T13:41:40.522Z,1.80
2019-05-09T13:44:13.730Z,1.40
2019-05-09T13:46:41.155Z,2.13
2019-05-09T13:49:15.175Z,2.13
2019-05-09T13:51:51.186Z,1.57
2019-05-09T13:54:13.443Z,1.57
2019-05-09T13:56:43.326Z,1.60
2019-05-09T13:59:12.824Z,1.83
2019-05-09T14:01:42.772Z,1.30
2019-05-09T14:04:12.242Z,1.67
2019-05-09T14:06:41.904Z,1.50
2019-05-09T14:09:11.523Z,1.33
2019-05-09T14:11:41.407Z,1.33
2019-05-09T14:14:10.870Z,1.20
2019-05-09T14:16:40.811Z,1.10
2019-05-09T14:19:30.205Z,1.53
2019-05-09T14:21:42.346Z,1.40
2019-05-09T14:24:15.538Z,1.30
2019-05-09T14:26:43.078Z,1.47
2019-05-09T14:29:13.427Z,1.10
2019-05-09T14:31:43.253Z,1.20
2019-05-09T14:34:12.721Z,1.10
2019-05-09T14:36:45.670Z,1.10
2019-05-09T14:39:13.346Z,1.17
2019-05-09T14:41:42.842Z,1.07
2019-05-09T14:44:12.710Z,1.20
2019-05-09T14:46:43.056Z,1.63
2019-05-09T14:49:12.561Z,1.50
2019-05-09T14:51:42.054Z,1.13
2019-05-09T14:54:11.623Z,1.20
2019-05-09T14:56:42.593Z,1.67
2019-05-09T14:59:12.407Z,2.03
2019-05-09T15:01:43.929Z,1.80
2019-05-09T15:04:13.153Z,1.20
2019-05-09T15:06:43.046Z,1.50
2019-05-09T15:09:12.510Z,1.50
2019-05-09T15:11:42.023Z,8.10
2019-05-09T15:14:11.515Z,12.63
2019-05-09T15:16:41.118Z,3.40
2019-05-09T15:19:10.647Z,6.17
2019-05-09T15:21:40.167Z,5.40
2019-05-09T15:24:09.707Z,1.50
2019-05-09T15:26:39.538Z,1.47
2019-05-09T15:29:09.459Z,1.40
2019-05-09T15:31:39.432Z,1.40
2019-05-09T15:34:10.505Z,1.60
2019-05-09T15:36:40.096Z,1.60
2019-05-09T15:39:09.603Z,1.70
2019-05-09T15:41:39.471Z,1.40
2019-05-09T15:44:08.950Z,1.70
2019-05-09T15:46:52.007Z,1.70
2019-05-09T15:49:21.590Z,2.00
2019-05-09T15:51:51.070Z,1.70
2019-05-09T15:54:20.571Z,1.70
2019-05-09T15:56:50.398Z,1.70
2019-05-09T15:59:19.884Z,1.80
2019-05-09T16:01:50.015Z,1.80
2019-05-09T16:04:19.509Z,2.30
2019-05-09T16:06:50.987Z,1.37
2019-05-09T16:09:20.158Z,1.73
2019-05-09T16:11:49.644Z,1.60
2019-05-09T16:14:19.242Z,1.70
2019-05-09T16:16:48.802Z,2.63
2019-05-09T16:19:18.303Z,1.70
2019-05-09T16:21:47.913Z,1.83
2019-05-09T16:24:18.771Z,1.53
2019-05-09T16:26:48.917Z,1.77
2019-05-09T16:29:19.238Z,2.83
2019-05-09T16:31:49.019Z,1.93
2019-05-09T16:34:18.504Z,2.33
2019-05-09T16:36:48.263Z,2.00
2019-05-09T16:39:18.296Z,1.90
2019-05-09T16:41:48.642Z,2.13
2019-05-09T16:44:18.645Z,2.60
2019-05-09T16:46:48.763Z,2.90
2019-05-09T16:49:19.839Z,2.90
2019-05-09T16:51:49.666Z,2.90
2019-05-09T16:54:19.858Z,2.70
2019-05-09T16:56:49.335Z,2.63
2019-05-09T16:59:18.837Z,2.83
2019-05-09T17:01:50.222Z,2.80
2019-05-09T17:04:19.570Z,3.17
2019-05-09T17:06:49.928Z,2.97
2019-05-09T17:09:19.742Z,2.70
2019-05-09T17:11:49.911Z,3.40
2019-05-09T17:14:19.549Z,3.30
2019-05-09T17:16:52.650Z,2.83
2019-05-09T17:19:20.274Z,3.17
2019-05-09T17:21:58.503Z,2.80
2019-05-09T17:24:29.933Z,3.00
2019-05-09T17:26:59.522Z,3.10
2019-05-09T17:29:29.447Z,3.10
2019-05-09T17:31:59.259Z,3.10
2019-05-09T17:34:28.878Z,2.50
2019-05-09T17:36:58.386Z,3.30
2019-05-09T17:39:28.248Z,3.33
2019-05-09T17:41:58.363Z,3.27
2019-05-09T17:44:28.259Z,3.10
2019-05-09T17:46:58.636Z,3.33
2019-05-09T17:49:29.980Z,3.93
2019-05-09T17:51:59.430Z,3.10
2019-05-09T17:54:29.005Z,2.70
2019-05-09T17:56:58.539Z,2.60
2019-05-09T17:59:29.200Z,3.00
2019-05-09T18:01:59.034Z,2.80
2019-05-09T18:04:28.949Z,3.30
2019-05-09T18:06:58.755Z,2.93
2019-05-09T18:09:28.867Z,2.60
2019-05-09T18:11:58.350Z,2.90
2019-05-09T18:14:27.902Z,3.23
2019-05-09T18:16:58.267Z,3.77
2019-05-09T18:19:29.267Z,4.90
2019-05-09T18:21:59.402Z,4.00
2019-05-09T18:24:29.273Z,4.00
2019-05-09T18:26:58.769Z,4.50
2019-05-09T18:29:28.403Z,5.17
2019-05-09T18:32:27.531Z,4.20
2019-05-09T18:35:09.173Z,5.03
2019-05-09T18:37:38.807Z,5.10
2019-05-09T18:40:08.442Z,5.30
2019-05-09T18:42:38.434Z,6.00
2019-05-09T18:45:09.611Z,5.90
2019-05-09T18:47:39.599Z,5.10
2019-05-09T18:50:09.818Z,6.13
2019-05-09T18:52:39.458Z,5.83
2019-05-09T18:55:09.949Z,6.37
2019-05-09T18:57:39.450Z,6.50
2019-05-09T19:00:11.258Z,6.57
2019-05-09T19:02:41.042Z,6.60
2019-05-09T19:05:13.038Z,7.00
2019-05-09T19:07:42.269Z,8.73
2019-05-09T19:10:12.354Z,8.67
2019-05-09T19:12:41.854Z,10.33
2019-05-09T19:15:16.407Z,9.40
2019-05-09T19:17:56.263Z,9.20
2019-05-09T19:20:51.802Z,9.40
2019-05-09T19:23:21.309Z,6.23
2019-05-09T19:25:50.883Z,5.60
2019-05-09T19:28:23.870Z,5.60
2019-05-09T19:30:51.544Z,5.10
2019-05-09T19:33:21.003Z,5.60
2019-05-09T19:35:50.505Z,5.00
2019-05-09T19:38:20.000Z,5.37
2019-05-09T19:40:49.466Z,6.00
2019-05-09T19:43:19.313Z,5.23
2019-05-09T19:45:48.823Z,5.10
2019-05-09T19:48:18.409Z,6.13
2019-05-09T19:50:48.288Z,6.00
2019-05-09T19:53:18.104Z,5.37
2019-05-09T19:55:47.615Z,5.97
2019-05-09T19:58:17.156Z,5.57
2019-05-09T20:00:47.022Z,5.70
2019-05-09T20:03:16.534Z,5.80
2019-05-09T20:05:46.334Z,5.23
2019-05-09T20:08:16.282Z,5.13
2019-05-09T20:11:04.594Z,5.50
2019-05-09T20:13:59.218Z,5.30
2019-05-09T20:16:30.359Z,6.13
2019-05-09T20:19:00.250Z,6.07
2019-05-09T20:21:29.723Z,5.70
2019-05-09T20:23:59.219Z,5.80
2019-05-09T20:26:28.708Z,6.03
2019-05-09T20:28:58.240Z,5.90
2019-05-09T20:31:28.083Z,6.70
2019-05-09T20:33:58.004Z,6.20
2019-05-09T20:36:27.484Z,6.50
2019-05-09T20:38:57.934Z,6.50
2019-05-09T20:41:28.355Z,5.80
2019-05-09T20:43:58.010Z,6.73
2019-05-09T20:46:27.695Z,6.80
2019-05-09T20:48:57.723Z,6.93
2019-05-09T20:51:27.398Z,7.87
2019-05-09T20:53:58.291Z,7.40
2019-05-09T20:56:27.974Z,8.30
2019-05-09T20:58:57.754Z,8.30
2019-05-09T21:01:27.790Z,8.83
2019-05-09T21:04:00.191Z,7.03
2019-05-09T21:06:28.795Z,8.30
2019-05-09T21:08:58.593Z,7.20
2019-05-09T21:11:28.222Z,8.47
2019-05-09T21:13:57.882Z,7.90
2019-05-09T21:16:27.666Z,8.60
2019-05-09T21:18:57.739Z,8.20
2019-05-09T21:21:27.406Z,7.73
2019-05-09T21:23:57.547Z,8.70
2019-05-09T21:26:27.606Z,9.57
2019-05-09T21:28:57.278Z,9.83
2019-05-09T21:31:27.126Z,11.10
2019-05-09T21:33:56.886Z,11.40
2019-05-09T21:36:26.787Z,11.77
2019-05-09T21:38:56.270Z,11.70
2019-05-09T21:41:25.782Z,12.83
2019-05-09T21:43:55.282Z,12.53
2019-05-09T21:46:25.106Z,13.33
2019-05-09T21:48:54.918Z,14.23
2019-05-09T21:51:24.440Z,14.30
2019-05-09T21:53:53.943Z,12.63
2019-05-09T21:56:23.491Z,13.53
2019-05-09T21:58:53.342Z,12.83
2019-05-09T22:01:22.836Z,12.73
2019-05-09T22:03:52.594Z,13.90
2019-05-09T22:06:22.250Z,12.93
2019-05-09T22:08:52.090Z,13.53
2019-05-09T22:11:21.592Z,14.63
2019-05-09T22:13:51.249Z,15.30
2019-05-09T22:16:20.747Z,14.20
2019-05-09T22:18:50.238Z,15.27
2019-05-09T22:21:22.522Z,16.00
2019-05-09T22:23:56.655Z,14.77
2019-05-09T22:26:23.724Z,16.07
2019-05-09T22:28:53.631Z,17.07
2019-05-09T22:31:23.155Z,16.80
2019-05-09T22:33:52.969Z,16.73
2019-05-09T22:36:22.491Z,19.13
2019-05-09T22:38:52.315Z,18.40
2019-05-09T22:41:21.810Z,20.00
2019-05-09T22:43:51.289Z,19.87
2019-05-09T22:46:20.802Z,20.90
2019-05-09T22:48:50.287Z,20.40
2019-05-09T22:51:19.782Z,20.17
2019-05-09T22:53:49.256Z,21.43
2019-05-09T22:56:19.130Z,22.10
2019-05-09T22:58:48.610Z,20.63
2019-05-09T23:01:18.103Z,21.57
2019-05-09T23:03:47.603Z,21.20
2019-05-09T23:06:17.103Z,22.30
2019-05-09T23:08:46.614Z,20.87
2019-05-09T23:11:16.105Z,20.50
2019-05-09T23:13:54.846Z,19.50
2019-05-09T23:16:25.972Z,18.60
2019-05-09T23:18:55.595Z,21.03
2019-05-09T23:21:27.358Z,21.13
2019-05-09T23:24:27.611Z,19.43
2019-05-09T23:26:47.127Z,18.37
2019-05-09T23:29:16.597Z,17.47
2019-05-09T23:31:59.023Z,17.67
2019-05-09T23:34:28.703Z,18.03
2019-05-09T23:36:58.189Z,16.13
2019-05-09T23:39:30.320Z,16.00
2019-05-09T23:42:00.225Z,15.77
2019-05-09T23:44:29.730Z,15.90
2019-05-09T23:46:59.611Z,14.80
2019-05-09T23:49:29.186Z,15.60
2019-05-09T23:51:58.702Z,16.80
2019-05-09T23:54:47.147Z,13.97
2019-05-09T23:57:34.946Z,16.00
